createdAt,value
2023-03-26T00:02:41.421Z,415.00
2023-03-26T00:06:41.561Z,414.00
2023-03-26T00:10:41.701Z,410.00
2023-03-26T00:14:41.871Z,410.00
2023-03-26T00:18:42.005Z,410.00
2023-03-26T00:22:42.181Z,413.00
2023-03-26T00:26:42.352Z,414.00
2023-03-26T00:30:42.541Z,413.00
2023-03-26T00:34:42.668Z,412.00
2023-03-26T00:38:42.898Z,410.00
2023-03-26T00:42:43.560Z,414.00
2023-03-26T00:46:43.247Z,409.00
2023-03-26T00:50:43.366Z,412.00
2023-03-26T00:54:43.563Z,411.00
2023-03-26T00:58:43.733Z,412.00
2023-03-26T01:02:43.971Z,418.00
2023-03-26T01:06:44.052Z,423.00
2023-03-26T01:10:44.235Z,417.00
2023-03-26T01:14:44.425Z,415.00
2023-03-26T01:18:44.551Z,418.00
2023-03-26T01:22:44.709Z,413.00
2023-03-26T01:26:44.890Z,415.00
2023-03-26T01:30:45.041Z,409.00
2023-03-26T01:34:45.204Z,411.00
2023-03-26T01:38:45.377Z,411.00
2023-03-26T01:42:45.530Z,411.00
2023-03-26T01:46:45.735Z,409.00
2023-03-26T01:50:45.848Z,409.00
2023-03-26T01:54:45.990Z,409.00
2023-03-26T01:58:46.157Z,410.00
2023-03-26T02:02:46.415Z,411.00
2023-03-26T02:06:46.434Z,410.00
2023-03-26T02:10:46.545Z,411.00
2023-03-26T02:14:46.664Z,407.00
2023-03-26T02:18:46.800Z,408.00
2023-03-26T02:22:46.947Z,409.00
2023-03-26T02:26:47.088Z,409.00
2023-03-26T02:30:47.249Z,412.00
2023-03-26T02:34:47.410Z,407.00
2023-03-26T02:38:47.506Z,407.00
2023-03-26T02:42:47.675Z,409.00
2023-03-26T02:46:47.849Z,408.00
2023-03-26T02:50:47.984Z,415.00
2023-03-26T02:54:48.152Z,411.00
2023-03-26T02:58:48.360Z,409.00
2023-03-26T03:02:48.815Z,406.00
2023-03-26T03:06:48.591Z,406.00
2023-03-26T03:10:48.697Z,407.00
2023-03-26T03:14:48.871Z,408.00
2023-03-26T03:18:49.056Z,405.00
2023-03-26T03:22:49.235Z,405.00
2023-03-26T03:26:49.445Z,403.00
2023-03-26T03:30:49.633Z,405.00
2023-03-26T03:34:49.779Z,408.00
2023-03-26T03:38:49.920Z,409.00
2023-03-26T03:42:50.128Z,411.00
2023-03-26T03:46:50.305Z,408.00
2023-03-26T03:50:50.470Z,410.00
2023-03-26T03:54:50.632Z,412.00
2023-03-26T03:58:51.586Z,407.00
2023-03-26T04:02:51.097Z,409.00
2023-03-26T04:06:51.146Z,410.00
2023-03-26T04:10:51.336Z,417.00
2023-03-26T04:14:51.554Z,412.00
2023-03-26T04:18:51.690Z,411.00
2023-03-26T04:22:51.911Z,412.00
2023-03-26T04:26:52.080Z,410.00
2023-03-26T04:30:52.258Z,409.00
2023-03-26T04:34:52.467Z,409.00
2023-03-26T04:38:52.647Z,410.00
2023-03-26T04:42:52.794Z,407.00
2023-03-26T04:46:53.074Z,406.00
2023-03-26T04:50:53.208Z,405.00
2023-03-26T04:54:53.390Z,412.00
2023-03-26T04:58:53.589Z,409.00
2023-03-26T05:02:53.877Z,407.00
2023-03-26T05:06:54.038Z,403.00
2023-03-26T08:43:04.786Z,403.00
2023-03-26T08:47:04.970Z,409.00
2023-03-26T08:51:05.165Z,408.00
2023-03-26T08:55:05.341Z,402.00
2023-03-26T08:59:05.520Z,404.00
2023-03-26T09:03:05.734Z,404.00
2023-03-26T09:07:05.857Z,405.00
2023-03-26T09:11:06.071Z,404.00
2023-03-26T09:15:06.248Z,409.00
2023-03-26T09:19:07.239Z,406.00
2023-03-26T09:23:06.591Z,404.00
2023-03-26T09:27:06.754Z,407.00
2023-03-26T09:31:07.031Z,406.00
2023-03-26T09:35:07.146Z,411.00
2023-03-26T09:39:07.341Z,408.00
2023-03-26T09:43:07.498Z,407.00
2023-03-26T09:47:07.681Z,410.00
2023-03-26T09:51:07.822Z,409.00
2023-03-26T09:55:08.018Z,408.00
2023-03-26T09:59:08.153Z,408.00
2023-03-26T10:03:08.378Z,402.00
2023-03-26T10:07:08.539Z,397.00
2023-03-26T10:11:08.686Z,401.00
2023-03-26T10:15:08.839Z,401.00
2023-03-26T10:19:09.021Z,397.00
2023-03-26T10:23:09.204Z,400.00
2023-03-26T10:27:10.826Z,402.00
2023-03-26T10:31:09.641Z,399.00
2023-03-26T10:35:09.723Z,397.00
2023-03-26T10:39:09.896Z,398.00
2023-03-26T10:43:12.462Z,398.00
2023-03-26T10:47:10.048Z,403.00
2023-03-26T10:51:10.025Z,400.00
2023-03-26T10:55:09.979Z,405.00
2023-03-26T10:59:09.930Z,402.00
2023-03-26T11:03:09.948Z,400.00
2023-03-26T11:07:09.837Z,397.00
2023-03-26T11:11:09.806Z,399.00
2023-03-26T11:15:09.780Z,402.00
2023-03-26T11:19:09.729Z,402.00
2023-03-26T11:23:09.706Z,402.00
2023-03-26T11:27:15.997Z,400.00
2023-03-26T11:31:10.637Z,400.00
2023-03-26T11:35:09.590Z,398.00
2023-03-26T11:39:09.588Z,401.00
2023-03-26T11:43:09.682Z,402.00
2023-03-26T11:47:09.834Z,401.00
2023-03-26T11:51:10.015Z,403.00
2023-03-26T11:55:10.192Z,400.00
2023-03-26T11:59:10.329Z,395.00
2023-03-26T12:03:10.498Z,394.00
2023-03-26T12:07:10.617Z,395.00
2023-03-26T12:11:10.828Z,393.00
2023-03-26T12:15:10.928Z,393.00
2023-03-26T12:19:11.051Z,394.00
2023-03-26T12:23:11.193Z,395.00
2023-03-26T12:27:11.491Z,392.00
2023-03-26T12:31:11.428Z,392.00
2023-03-26T12:35:11.291Z,393.00
2023-03-26T12:39:43.098Z,390.00
2023-03-26T12:44:55.341Z,391.00
2023-03-26T12:47:57.154Z,388.00
2023-03-26T12:51:12.296Z,391.00
2023-03-26T12:55:12.304Z,393.00
2023-03-26T12:59:11.201Z,390.00
2023-03-26T13:03:11.258Z,390.00
2023-03-26T13:07:11.148Z,394.00
2023-03-26T13:11:11.097Z,391.00
2023-03-26T13:15:11.055Z,391.00
2023-03-26T13:19:11.022Z,390.00
2023-03-26T13:23:11.137Z,385.00
2023-03-26T13:27:11.328Z,386.00
2023-03-26T13:31:11.490Z,384.00
2023-03-26T13:35:11.636Z,383.00
2023-03-26T13:39:11.798Z,387.00
2023-03-26T13:43:11.984Z,391.00
2023-03-26T13:47:12.155Z,393.00
2023-03-26T13:51:12.323Z,391.00
2023-03-26T13:55:12.522Z,396.00
2023-03-26T13:59:12.696Z,392.00
2023-03-26T14:03:12.889Z,387.00
2023-03-26T14:07:13.067Z,387.00
2023-03-26T14:11:13.283Z,386.00
2023-03-26T14:15:13.451Z,383.00
2023-03-26T14:19:13.650Z,384.00
2023-03-26T14:23:13.820Z,383.00
2023-03-26T14:27:14.041Z,380.00
2023-03-26T14:31:14.261Z,380.00
2023-03-26T14:35:14.380Z,382.00
2023-03-26T14:39:14.562Z,381.00
2023-03-26T14:43:14.756Z,384.00
2023-03-26T14:47:15.431Z,384.00
2023-03-26T14:51:15.156Z,384.00
2023-03-26T14:55:15.348Z,382.00
2023-03-26T14:59:15.528Z,380.00
2023-03-26T15:03:15.725Z,387.00
2023-03-26T15:07:15.899Z,388.00
2023-03-26T15:11:16.102Z,388.00
2023-03-26T15:15:16.336Z,381.00
2023-03-26T15:19:16.491Z,385.00
2023-03-26T15:23:16.681Z,389.00
2023-03-26T15:27:16.867Z,385.00
2023-03-26T15:31:17.043Z,384.00
2023-03-26T15:35:18.932Z,389.00
2023-03-26T15:39:17.436Z,389.00
2023-03-26T15:43:17.617Z,388.00
2023-03-26T15:47:17.799Z,383.00
2023-03-26T15:51:18.025Z,385.00
2023-03-26T15:55:18.163Z,383.00
2023-03-26T15:59:18.359Z,384.00
2023-03-26T16:03:18.559Z,383.00
2023-03-26T16:07:18.761Z,382.00
2023-03-26T16:11:18.951Z,381.00
2023-03-26T16:15:19.117Z,384.00
2023-03-26T16:19:19.301Z,383.00
2023-03-26T16:23:19.497Z,380.00
2023-03-26T16:27:19.730Z,381.00
2023-03-26T16:31:36.190Z,376.00
2023-03-26T16:35:20.853Z,381.00
2023-03-26T16:39:19.849Z,383.00
2023-03-26T16:43:19.976Z,380.00
2023-03-26T16:47:20.241Z,381.00
2023-03-26T16:51:20.434Z,382.00
2023-03-26T16:55:20.633Z,381.00
2023-03-26T16:59:20.852Z,379.00
2023-03-26T17:03:21.186Z,377.00
2023-03-26T17:07:21.277Z,379.00
2023-03-26T17:11:22.259Z,378.00
2023-03-26T17:15:21.671Z,380.00
2023-03-26T17:19:21.870Z,385.00
2023-03-26T17:23:22.094Z,381.00
2023-03-26T17:27:22.336Z,383.00
2023-03-26T17:31:22.582Z,381.00
2023-03-26T17:35:22.780Z,380.00
2023-03-26T17:39:22.981Z,385.00
2023-03-26T17:43:23.176Z,384.00
2023-03-26T17:47:23.138Z,387.00
2023-03-26T17:51:23.133Z,390.00
2023-03-26T17:55:23.144Z,394.00
2023-03-26T17:59:23.102Z,391.00
2023-03-26T18:03:23.039Z,389.00
2023-03-26T18:07:22.969Z,387.00
2023-03-26T18:11:22.939Z,386.00
2023-03-26T18:15:22.918Z,384.00
2023-03-26T18:19:23.011Z,384.00
2023-03-26T18:23:22.865Z,388.00
2023-03-26T18:27:23.017Z,386.00
2023-03-26T18:31:23.013Z,390.00
2023-03-26T18:35:23.026Z,391.00
2023-03-26T18:39:22.898Z,387.00
2023-03-26T18:43:34.473Z,383.00
2023-03-26T18:47:23.843Z,382.00
2023-03-26T18:51:22.900Z,386.00
2023-03-26T18:55:22.770Z,385.00
2023-03-26T18:59:22.969Z,392.00
2023-03-26T19:03:23.007Z,390.00
2023-03-26T19:07:22.871Z,388.00
2023-03-26T19:11:22.849Z,390.00
2023-03-26T19:15:22.810Z,387.00
2023-03-26T19:19:22.766Z,386.00
2023-03-26T19:23:22.735Z,387.00
2023-03-26T19:27:22.700Z,388.00
2023-03-26T19:31:22.709Z,386.00
2023-03-26T19:35:22.666Z,389.00
2023-03-26T19:39:34.854Z,387.00
2023-03-26T19:43:23.655Z,390.00
2023-03-26T19:47:47.346Z,386.00
2023-03-26T19:51:23.583Z,389.00
2023-03-26T19:55:22.616Z,383.00
2023-03-26T19:59:22.595Z,382.00
2023-03-26T20:03:22.655Z,380.00
2023-03-26T20:07:22.512Z,380.00
2023-03-26T20:11:23.459Z,386.00
2023-03-26T20:15:22.475Z,385.00
2023-03-26T20:19:22.900Z,389.00
2023-03-26T20:23:22.415Z,391.00
2023-03-26T20:27:22.538Z,390.00
2023-03-26T20:31:22.364Z,390.00
2023-03-26T20:35:35.798Z,385.00
2023-03-26T20:39:23.245Z,384.00
2023-03-26T20:43:22.245Z,383.00
2023-03-26T20:47:22.312Z,386.00
2023-03-26T20:51:22.161Z,384.00
2023-03-26T20:55:22.112Z,380.00
2023-03-26T20:59:22.693Z,383.00
2023-03-26T21:03:22.098Z,381.00
2023-03-26T21:07:22.016Z,381.00
2023-03-26T21:11:26.608Z,383.00
2023-03-26T21:15:23.919Z,383.00
2023-03-26T21:19:21.954Z,381.00
2023-03-26T21:23:21.940Z,382.00
2023-03-26T21:27:21.917Z,383.00
2023-03-26T21:31:21.942Z,383.00
2023-03-26T21:35:22.019Z,382.00
2023-03-26T21:39:21.793Z,385.00
2023-03-26T21:43:21.746Z,377.00
2023-03-26T21:47:21.705Z,377.00
2023-03-26T21:51:21.682Z,379.00
2023-03-26T21:55:21.648Z,378.00
2023-03-26T21:59:21.773Z,382.00
2023-03-26T22:03:21.818Z,384.00
2023-03-26T22:07:21.704Z,382.00
2023-03-26T22:11:21.704Z,383.00
2023-03-26T22:15:21.631Z,382.00
2023-03-26T22:19:21.639Z,381.00
2023-03-26T22:23:21.604Z,383.00
2023-03-26T22:27:21.564Z,382.00
2023-03-26T22:31:21.510Z,378.00
2023-03-26T22:35:21.533Z,377.00
2023-03-26T22:39:21.627Z,378.00
2023-03-26T22:43:21.617Z,381.00
2023-03-26T22:47:21.724Z,380.00
2023-03-26T22:51:21.542Z,380.00
2023-03-26T22:55:28.632Z,376.00
2023-03-26T22:59:22.459Z,380.00
2023-03-26T23:03:21.507Z,380.00
2023-03-26T23:07:22.481Z,382.00
2023-03-26T23:11:21.487Z,378.00
2023-03-26T23:15:21.450Z,379.00
2023-03-26T23:19:21.429Z,381.00
2023-03-26T23:23:21.390Z,384.00
2023-03-26T23:27:22.714Z,380.00
2023-03-26T23:31:21.375Z,384.00
2023-03-26T23:35:21.349Z,382.00
2023-03-26T23:39:21.362Z,379.00
2023-03-26T23:43:21.386Z,376.00
2023-03-26T23:47:21.353Z,375.00
2023-03-26T23:51:21.303Z,375.00
2023-03-26T23:55:21.293Z,376.00
2023-03-26T23:59:21.245Z,376.00
